sensor_id;sensor_type;location;lat;lon;timestamp;pressure;altitude;pressure_sealevel;temperature;humidity
59789;BME280;47353;51.614;5.530;2023-04-06T00:00:50;101715.44;;;3.45;59.88
59789;BME280;47353;51.614;5.530;2023-04-06T00:03:16;101712.91;;;3.44;59.90
59789;BME280;47353;51.614;5.530;2023-04-06T00:05:42;101707.66;;;3.36;60.87
59789;BME280;47353;51.614;5.530;2023-04-06T00:08:08;101709.75;;;3.40;61.26
59789;BME280;47353;51.614;5.530;2023-04-06T00:10:33;101715.44;;;3.32;61.09
59789;BME280;47353;51.614;5.530;2023-04-06T00:12:59;101704.69;;;3.31;60.15
59789;BME280;47353;51.614;5.530;2023-04-06T00:15:25;101713.53;;;3.26;60.99
59789;BME280;47353;51.614;5.530;2023-04-06T00:17:51;101714.75;;;3.24;61.25
59789;BME280;47353;51.614;5.530;2023-04-06T00:20:16;101703.19;;;3.15;61.35
59789;BME280;47353;51.614;5.530;2023-04-06T00:22:44;101707.19;;;3.13;62.07
59789;BME280;47353;51.614;5.530;2023-04-06T00:25:10;101697.50;;;3.10;62.30
59789;BME280;47353;51.614;5.530;2023-04-06T00:27:36;101703.38;;;3.07;62.47
59789;BME280;47353;51.614;5.530;2023-04-06T00:30:03;101695.38;;;3.06;62.57
59789;BME280;47353;51.614;5.530;2023-04-06T00:32:30;101699.19;;;3.11;63.17
59789;BME280;47353;51.614;5.530;2023-04-06T00:34:55;101690.97;;;3.05;63.46
59789;BME280;47353;51.614;5.530;2023-04-06T00:37:21;101682.13;;;3.03;62.88
59789;BME280;47353;51.614;5.530;2023-04-06T00:39:46;101686.34;;;2.99;63.25
59789;BME280;47353;51.614;5.530;2023-04-06T00:42:13;101670.75;;;2.86;63.47
59789;BME280;47353;51.614;5.530;2023-04-06T00:44:40;101674.31;;;2.93;64.04
59789;BME280;47353;51.614;5.530;2023-04-06T00:47:06;101680.00;;;2.92;63.96
59789;BME280;47353;51.614;5.530;2023-04-06T00:49:33;101671.56;;;2.87;64.17
59789;BME280;47353;51.614;5.530;2023-04-06T00:51:59;101674.50;;;2.85;64.44
59789;BME280;47353;51.614;5.530;2023-04-06T00:54:25;101658.09;;;2.72;64.42
59789;BME280;47353;51.614;5.530;2023-04-06T00:56:51;101667.97;;;2.80;64.56
59789;BME280;47353;51.614;5.530;2023-04-06T00:59:16;101666.72;;;2.76;64.67
59789;BME280;47353;51.614;5.530;2023-04-06T01:01:42;101665.00;;;2.75;64.87
59789;BME280;47353;51.614;5.530;2023-04-06T01:04:07;101661.06;;;2.77;64.90
59789;BME280;47353;51.614;5.530;2023-04-06T01:06:33;101658.50;;;2.69;65.16
59789;BME280;47353;51.614;5.530;2023-04-06T01:08:59;101652.81;;;2.71;65.46
59789;BME280;47353;51.614;5.530;2023-04-06T01:11:24;101652.63;;;2.72;65.32
59789;BME280;47353;51.614;5.530;2023-04-06T01:13:50;101648.78;;;2.67;65.93
59789;BME280;47353;51.614;5.530;2023-04-06T01:16:15;101648.78;;;2.67;65.55
59789;BME280;47353;51.614;5.530;2023-04-06T01:18:40;101649.22;;;2.64;65.67
59789;BME280;47353;51.614;5.530;2023-04-06T01:21:07;101648.78;;;2.67;65.94
59789;BME280;47353;51.614;5.530;2023-04-06T01:23:34;101644.19;;;2.67;65.68
59789;BME280;47353;51.614;5.530;2023-04-06T01:25:59;101652.19;;;2.69;65.94
59789;BME280;47353;51.614;5.530;2023-04-06T01:28:25;101644.59;;;2.64;65.55
59789;BME280;47353;51.614;5.530;2023-04-06T01:30:50;101637.47;;;2.70;66.87
59789;BME280;47353;51.614;5.530;2023-04-06T01:33:16;101644.22;;;2.74;65.29
59789;BME280;47353;51.614;5.530;2023-04-06T01:35:41;101628.44;;;2.82;65.74
59789;BME280;47353;51.614;5.530;2023-04-06T01:38:07;101630.56;;;2.80;65.46
59789;BME280;47353;51.614;5.530;2023-04-06T01:40:32;101608.88;;;2.85;66.04
59789;BME280;47353;51.614;5.530;2023-04-06T01:42:57;101621.75;;;2.98;65.86
59789;BME280;47353;51.614;5.530;2023-04-06T01:45:23;101612.94;;;2.96;66.47
59789;BME280;47353;51.614;5.530;2023-04-06T01:47:48;101601.75;;;3.04;66.08
59789;BME280;47353;51.614;5.530;2023-04-06T01:50:14;101608.50;;;3.08;66.23
59789;BME280;47353;51.614;5.530;2023-04-06T01:52:40;101611.03;;;3.09;66.87
59789;BME280;47353;51.614;5.530;2023-04-06T01:55:06;101610.63;;;3.12;65.75
59789;BME280;47353;51.614;5.530;2023-04-06T01:57:32;101601.56;;;3.18;65.44
59789;BME280;47353;51.614;5.530;2023-04-06T01:59:57;101613.56;;;3.24;64.92
59789;BME280;47353;51.614;5.530;2023-04-06T02:02:22;101609.78;;;3.31;64.54
59789;BME280;47353;51.614;5.530;2023-04-06T02:04:48;101602.63;;;3.37;63.65
59789;BME280;47353;51.614;5.530;2023-04-06T02:07:13;101596.09;;;3.38;63.59
59789;BME280;47353;51.614;5.530;2023-04-06T02:09:39;101592.09;;;3.40;64.34
59789;BME280;47353;51.614;5.530;2023-04-06T02:12:04;101592.50;;;3.44;65.12
59789;BME280;47353;51.614;5.530;2023-04-06T02:14:30;101589.97;;;3.42;64.84
59789;BME280;47353;51.614;5.530;2023-04-06T02:16:55;101589.38;;;3.40;65.11
59789;BME280;47353;51.614;5.530;2023-04-06T02:19:21;101577.34;;;3.41;64.16
59789;BME280;47353;51.614;5.530;2023-04-06T02:21:46;101582.41;;;3.44;64.00
59789;BME280;47353;51.614;5.530;2023-04-06T02:24:11;101577.78;;;3.45;64.85
59789;BME280;47353;51.614;5.530;2023-04-06T02:26:37;101574.81;;;3.47;65.25
59789;BME280;47353;51.614;5.530;2023-04-06T02:29:02;101573.13;;;3.45;65.56
59789;BME280;47353;51.614;5.530;2023-04-06T02:31:28;101571.88;;;3.48;64.26
59789;BME280;47353;51.614;5.530;2023-04-06T02:33:53;101562.81;;;3.47;65.56
59789;BME280;47353;51.614;5.530;2023-04-06T02:36:19;101567.84;;;3.51;64.67
59789;BME280;47353;51.614;5.530;2023-04-06T02:38:44;101564.47;;;3.55;64.45
59789;BME280;47353;51.614;5.530;2023-04-06T02:41:10;101565.75;;;3.59;64.19
59789;BME280;47353;51.614;5.530;2023-04-06T02:43:35;101561.94;;;3.60;64.57
59789;BME280;47353;51.614;5.530;2023-04-06T02:46:01;101563.03;;;3.59;63.89
59789;BME280;47353;51.614;5.530;2023-04-06T02:48:26;101548.28;;;3.60;63.97
59789;BME280;47353;51.614;5.530;2023-04-06T02:50:51;101559.44;;;3.59;63.80
59789;BME280;47353;51.614;5.530;2023-04-06T02:53:17;101553.97;;;3.59;64.30
59789;BME280;47353;51.614;5.530;2023-04-06T02:55:42;101550.78;;;3.62;64.72
59789;BME280;47353;51.614;5.530;2023-04-06T02:58:08;101544.47;;;3.61;64.53
59789;BME280;47353;51.614;5.530;2023-04-06T03:00:33;101549.56;;;3.58;64.91
59789;BME280;47353;51.614;5.530;2023-04-06T03:02:58;101548.06;;;3.55;65.54
59789;BME280;47353;51.614;5.530;2023-04-06T03:05:24;101547.25;;;3.55;65.18
59789;BME280;47353;51.614;5.530;2023-04-06T03:07:49;101548.28;;;3.54;65.59
59789;BME280;47353;51.614;5.530;2023-04-06T03:10:15;101542.81;;;3.54;66.02
59789;BME280;47353;51.614;5.530;2023-04-06T03:12:40;101541.78;;;3.55;65.57
59789;BME280;47353;51.614;5.530;2023-04-06T03:15:07;101541.56;;;3.56;66.50
59789;BME280;47353;51.614;5.530;2023-04-06T03:17:33;101532.47;;;3.62;64.79
59789;BME280;47353;51.614;5.530;2023-04-06T03:19:58;101529.97;;;3.61;65.51
59789;BME280;47353;51.614;5.530;2023-04-06T03:22:24;101529.09;;;3.60;65.41
59789;BME280;47353;51.614;5.530;2023-04-06T03:24:49;101530.38;;;3.58;65.54
59789;BME280;47353;51.614;5.530;2023-04-06T03:27:15;101530.19;;;3.59;66.63
59789;BME280;47353;51.614;5.530;2023-04-06T03:29:40;101528.25;;;3.66;65.77
59789;BME280;47353;51.614;5.530;2023-04-06T03:32:07;101530.97;;;3.66;65.47
59789;BME280;47353;51.614;5.530;2023-04-06T03:34:32;101530.56;;;3.63;66.48
59789;BME280;47353;51.614;5.530;2023-04-06T03:36:58;101532.47;;;3.62;66.27
59789;BME280;47353;51.614;5.530;2023-04-06T03:39:23;101525.50;;;3.66;65.61
59789;BME280;47353;51.614;5.530;2023-04-06T03:41:49;101526.16;;;3.68;66.16
59789;BME280;47353;51.614;5.530;2023-04-06T03:44:14;101521.50;;;3.69;65.40
59789;BME280;47353;51.614;5.530;2023-04-06T03:46:40;101523.63;;;3.67;65.57
59789;BME280;47353;51.614;5.530;2023-04-06T03:49:05;101513.91;;;3.64;65.87
59789;BME280;47353;51.614;5.530;2023-04-06T03:51:30;101512.66;;;3.67;66.50
59789;BME280;47353;51.614;5.530;2023-04-06T03:53:56;101508.22;;;3.66;66.27
59789;BME280;47353;51.614;5.530;2023-04-06T03:56:21;101507.63;;;3.64;66.89
59789;BME280;47353;51.614;5.530;2023-04-06T03:58:47;101513.97;;;3.58;66.16
59789;BME280;47353;51.614;5.530;2023-04-06T04:01:16;101517.94;;;3.55;66.44
59789;BME280;47353;51.614;5.530;2023-04-06T04:03:42;101512.69;;;3.54;66.82
59789;BME280;47353;51.614;5.530;2023-04-06T04:06:07;101509.56;;;3.50;66.83
59789;BME280;47353;51.614;5.530;2023-04-06T04:08:33;101512.91;;;3.52;66.48
59789;BME280;47353;51.614;5.530;2023-04-06T04:10:58;101518.41;;;3.45;67.12
59789;BME280;47353;51.614;5.530;2023-04-06T04:13:24;101511.25;;;3.44;66.85
59789;BME280;47353;51.614;5.530;2023-04-06T04:15:49;101528.31;;;3.47;67.69
59789;BME280;47353;51.614;5.530;2023-04-06T04:18:15;101519.25;;;3.46;67.14
59789;BME280;47353;51.614;5.530;2023-04-06T04:20:42;101513.34;;;3.42;67.66
59789;BME280;47353;51.614;5.530;2023-04-06T04:23:07;101518.22;;;3.40;68.19
59789;BME280;47353;51.614;5.530;2023-04-06T04:25:32;101515.88;;;3.51;67.68
59789;BME280;47353;51.614;5.530;2023-04-06T04:27:58;101521.56;;;3.42;67.97
59789;BME280;47353;51.614;5.530;2023-04-06T04:30:23;101517.97;;;3.48;67.34
59789;BME280;47353;51.614;5.530;2023-04-06T04:32:49;101510.38;;;3.51;67.40
59789;BME280;47353;51.614;5.530;2023-04-06T04:35:15;101520.69;;;3.48;67.72
59789;BME280;47353;51.614;5.530;2023-04-06T04:37:41;101511.25;;;3.51;68.09
59789;BME280;47353;51.614;5.530;2023-04-06T04:40:07;101511.25;;;3.51;68.23
59789;BME280;47353;51.614;5.530;2023-04-06T04:42:33;101517.97;;;3.48;68.46
59789;BME280;47353;51.614;5.530;2023-04-06T04:44:58;101519.25;;;3.46;68.28
59789;BME280;47353;51.614;5.530;2023-04-06T04:47:24;101508.72;;;3.50;67.66
59789;BME280;47353;51.614;5.530;2023-04-06T04:49:49;101507.44;;;3.52;66.97
59789;BME280;47353;51.614;5.530;2023-04-06T04:52:15;101506.19;;;3.48;68.51
59789;BME280;47353;51.614;5.530;2023-04-06T04:54:40;101502.81;;;3.46;67.50
59789;BME280;47353;51.614;5.530;2023-04-06T04:57:06;101499.66;;;3.42;67.77
59789;BME280;47353;51.614;5.530;2023-04-06T04:59:32;101507.66;;;3.44;67.95
59789;BME280;47353;51.614;5.530;2023-04-06T05:01:57;101505.97;;;3.50;67.69
59789;BME280;47353;51.614;5.530;2023-04-06T05:04:23;101496.50;;;3.52;67.79
59789;BME280;47353;51.614;5.530;2023-04-06T05:06:49;101506.34;;;3.60;67.20
59789;BME280;47353;51.614;5.530;2023-04-06T05:09:14;101505.97;;;3.56;66.96
59789;BME280;47353;51.614;5.530;2023-04-06T05:11:40;101509.13;;;3.53;68.05
59789;BME280;47353;51.614;5.530;2023-04-06T05:14:05;101511.22;;;3.58;67.56
59789;BME280;47353;51.614;5.530;2023-04-06T05:16:33;101509.31;;;3.58;67.68
59789;BME280;47353;51.614;5.530;2023-04-06T05:18:59;101512.47;;;3.62;67.61
59789;BME280;47353;51.614;5.530;2023-04-06T05:21:24;101505.31;;;3.61;68.20
59789;BME280;47353;51.614;5.530;2023-04-06T05:23:51;101504.47;;;3.67;68.24
59789;BME280;47353;51.614;5.530;2023-04-06T05:26:16;101500.66;;;3.68;68.57
59789;BME280;47353;51.614;5.530;2023-04-06T05:28:42;101499.81;;;3.67;68.26
59789;BME280;47353;51.614;5.530;2023-04-06T05:31:09;101503.38;;;3.74;68.82
59789;BME280;47353;51.614;5.530;2023-04-06T05:33:34;101493.66;;;3.78;69.40
59789;BME280;47353;51.614;5.530;2023-04-06T05:36:00;101498.47;;;3.83;68.48
59789;BME280;47353;51.614;5.530;2023-04-06T05:38:26;101494.50;;;3.85;68.08
59789;BME280;47353;51.614;5.530;2023-04-06T05:40:51;101503.09;;;3.89;68.02
59789;BME280;47353;51.614;5.530;2023-04-06T05:43:17;101494.84;;;3.95;67.67
59789;BME280;47353;51.614;5.530;2023-04-06T05:45:44;101499.94;;;3.92;68.23
59789;BME280;47353;51.614;5.530;2023-04-06T05:48:10;101492.97;;;3.96;68.09
59789;BME280;47353;51.614;5.530;2023-04-06T05:50:35;101487.69;;;4.01;67.87
59789;BME280;47353;51.614;5.530;2023-04-06T05:53:01;101495.84;;;4.07;67.85
59789;BME280;47353;51.614;5.530;2023-04-06T05:55:26;101496.25;;;4.11;68.38
59789;BME280;47353;51.614;5.530;2023-04-06T05:57:53;101489.28;;;4.15;68.28
59789;BME280;47353;51.614;5.530;2023-04-06T06:00:18;101493.88;;;4.21;67.58
59789;BME280;47353;51.614;5.530;2023-04-06T06:02:44;101499.09;;;4.29;67.80
59789;BME280;47353;51.614;5.530;2023-04-06T06:05:10;101497.38;;;4.34;66.98
59789;BME280;47353;51.614;5.530;2023-04-06T06:07:36;101491.88;;;4.41;67.31
59789;BME280;47353;51.614;5.530;2023-04-06T06:10:02;101483.03;;;4.39;68.15
59789;BME280;47353;51.614;5.530;2023-04-06T06:12:27;101495.38;;;4.48;67.16
59789;BME280;47353;51.614;5.530;2023-04-06T06:14:53;101498.53;;;4.51;67.90
59789;BME280;47353;51.614;5.530;2023-04-06T06:17:19;101500.16;;;4.59;67.18
59789;BME280;47353;51.614;5.530;2023-04-06T06:19:44;101493.78;;;4.65;67.94
59789;BME280;47353;51.614;5.530;2023-04-06T06:22:10;101487.00;;;4.67;66.90
59789;BME280;47353;51.614;5.530;2023-04-06T06:24:35;101494.91;;;4.82;66.36
59789;BME280;47353;51.614;5.530;2023-04-06T06:27:01;101497.25;;;4.78;66.80
59789;BME280;47353;51.614;5.530;2023-04-06T06:29:26;101500.94;;;4.90;65.86
59789;BME280;47353;51.614;5.530;2023-04-06T06:31:51;101505.44;;;4.85;66.76
59789;BME280;47353;51.614;5.530;2023-04-06T06:34:17;101505.00;;;4.88;67.21
59789;BME280;47353;51.614;5.530;2023-04-06T06:36:42;101506.84;;;4.94;67.41
59789;BME280;47353;51.614;5.530;2023-04-06T06:39:08;101508.84;;;5.05;66.72
59789;BME280;47353;51.614;5.530;2023-04-06T06:41:33;101510.03;;;5.15;65.36
59789;BME280;47353;51.614;5.530;2023-04-06T06:43:58;101507.44;;;5.21;65.40
59789;BME280;47353;51.614;5.530;2023-04-06T06:46:25;101502.81;;;5.21;66.73
59789;BME280;47353;51.614;5.530;2023-04-06T06:48:50;101501.81;;;5.34;65.09
59789;BME280;47353;51.614;5.530;2023-04-06T06:51:16;101504.03;;;5.25;65.82
59789;BME280;47353;51.614;5.530;2023-04-06T06:53:41;101505.69;;;5.26;65.53
59789;BME280;47353;51.614;5.530;2023-04-06T06:56:06;101493.81;;;5.32;64.62
59789;BME280;47353;51.614;5.530;2023-04-06T06:58:32;101497.97;;;5.41;64.63
59789;BME280;47353;51.614;5.530;2023-04-06T07:00:58;101493.00;;;5.50;63.96
59789;BME280;47353;51.614;5.530;2023-04-06T07:03:24;101494.38;;;5.59;63.93
59789;BME280;47353;51.614;5.530;2023-04-06T07:05:49;101485.44;;;5.63;63.58
59789;BME280;47353;51.614;5.530;2023-04-06T07:08:19;101490.63;;;5.53;64.19
59789;BME280;47353;51.614;5.530;2023-04-06T07:10:44;101482.19;;;5.55;63.33
59789;BME280;47353;51.614;5.530;2023-04-06T07:13:10;101482.09;;;5.61;63.84
59789;BME280;47353;51.614;5.530;2023-04-06T07:15:36;101479.13;;;5.63;63.60
59789;BME280;47353;51.614;5.530;2023-04-06T07:18:02;101487.97;;;5.65;63.34
59789;BME280;47353;51.614;5.530;2023-04-06T07:20:28;101492.41;;;5.66;63.77
59789;BME280;47353;51.614;5.530;2023-04-06T07:22:53;101481.53;;;5.71;63.30
59789;BME280;47353;51.614;5.530;2023-04-06T07:25:19;101488.28;;;5.75;64.05
59789;BME280;47353;51.614;5.530;2023-04-06T07:27:44;101481.66;;;5.82;62.78
59789;BME280;47353;51.614;5.530;2023-04-06T07:30:10;101476.78;;;5.84;62.44
59789;BME280;47353;51.614;5.530;2023-04-06T07:32:36;101480.88;;;5.93;62.48
59789;BME280;47353;51.614;5.530;2023-04-06T07:35:03;101475.16;;;5.95;61.94
59789;BME280;47353;51.614;5.530;2023-04-06T07:37:28;101482.09;;;5.97;63.35
59789;BME280;47353;51.614;5.530;2023-04-06T07:39:54;101481.41;;;6.02;62.19
59789;BME280;47353;51.614;5.530;2023-04-06T07:42:19;101485.84;;;6.03;62.93
59789;BME280;47353;51.614;5.530;2023-04-06T07:44:45;101480.63;;;6.13;62.20
59789;BME280;47353;51.614;5.530;2023-04-06T07:47:10;101477.31;;;6.22;63.33
59789;BME280;47353;51.614;5.530;2023-04-06T07:49:36;101472.94;;;6.33;62.21
59789;BME280;47353;51.614;5.530;2023-04-06T07:52:01;101480.47;;;6.37;61.87
59789;BME280;47353;51.614;5.530;2023-04-06T07:54:28;101476.91;;;6.37;62.04
59789;BME280;47353;51.614;5.530;2023-04-06T07:56:53;101475.72;;;6.44;61.97
59789;BME280;47353;51.614;5.530;2023-04-06T07:59:19;101480.84;;;6.41;62.32
59789;BME280;47353;51.614;5.530;2023-04-06T08:01:44;101482.19;;;6.50;62.84
59789;BME280;47353;51.614;5.530;2023-04-06T08:04:09;101474.81;;;6.62;62.50
59789;BME280;47353;51.614;5.530;2023-04-06T08:06:35;101482.09;;;6.68;61.48
59789;BME280;47353;51.614;5.530;2023-04-06T08:09:02;101472.75;;;6.57;60.58
59789;BME280;47353;51.614;5.530;2023-04-06T08:11:27;101485.09;;;6.66;61.29
59789;BME280;47353;51.614;5.530;2023-04-06T08:13:53;101480.91;;;6.75;61.43
59789;BME280;47353;51.614;5.530;2023-04-06T08:16:19;101479.88;;;6.88;60.95
59789;BME280;47353;51.614;5.530;2023-04-06T08:18:44;101484.91;;;6.91;60.35
59789;BME280;47353;51.614;5.530;2023-04-06T08:21:10;101473.06;;;6.91;60.23
59789;BME280;47353;51.614;5.530;2023-04-06T08:23:36;101478.94;;;7.06;60.27
59789;BME280;47353;51.614;5.530;2023-04-06T08:26:01;101475.72;;;7.20;59.91
59789;BME280;47353;51.614;5.530;2023-04-06T08:28:26;101477.75;;;7.25;59.54
59789;BME280;47353;51.614;5.530;2023-04-06T08:30:52;101485.63;;;7.33;58.23
59789;BME280;47353;51.614;5.530;2023-04-06T08:33:17;101486.03;;;7.25;58.89
59789;BME280;47353;51.614;5.530;2023-04-06T08:35:43;101485.06;;;7.31;57.65
59789;BME280;47353;51.614;5.530;2023-04-06T08:38:08;101479.31;;;7.21;58.69
59789;BME280;47353;51.614;5.530;2023-04-06T08:40:40;101481.22;;;7.43;57.64
59789;BME280;47353;51.614;5.530;2023-04-06T08:43:13;101492.00;;;7.33;58.01
59789;BME280;47353;51.614;5.530;2023-04-06T08:45:40;101487.56;;;7.44;57.97
59789;BME280;47353;51.614;5.530;2023-04-06T08:48:06;101480.47;;;7.59;57.04
59789;BME280;47353;51.614;5.530;2023-04-06T08:50:33;101484.44;;;7.63;57.93
59789;BME280;47353;51.614;5.530;2023-04-06T08:52:59;101483.78;;;7.73;57.61
59789;BME280;47353;51.614;5.530;2023-04-06T08:55:25;101482.13;;;7.83;57.09
59789;BME280;47353;51.614;5.530;2023-04-06T08:57:50;101484.59;;;7.96;57.63
59789;BME280;47353;51.614;5.530;2023-04-06T09:00:20;101480.72;;;7.97;56.69
59789;BME280;47353;51.614;5.530;2023-04-06T09:02:49;101482.63;;;8.08;57.00
59789;BME280;47353;51.614;5.530;2023-04-06T09:05:15;101483.91;;;8.17;56.98
59789;BME280;47353;51.614;5.530;2023-04-06T09:07:41;101485.56;;;8.30;56.64
59789;BME280;47353;51.614;5.530;2023-04-06T09:10:07;101493.69;;;8.36;56.25
59789;BME280;47353;51.614;5.530;2023-04-06T09:12:35;101485.38;;;8.48;56.75
59789;BME280;47353;51.614;5.530;2023-04-06T09:15:01;101489.41;;;8.57;56.16
59789;BME280;47353;51.614;5.530;2023-04-06T09:17:28;101495.59;;;8.64;56.06
59789;BME280;47353;51.614;5.530;2023-04-06T09:19:56;101486.41;;;8.75;55.57
59789;BME280;47353;51.614;5.530;2023-04-06T09:22:21;101492.84;;;8.81;55.13
59789;BME280;47353;51.614;5.530;2023-04-06T09:24:52;101493.19;;;8.84;55.15
59789;BME280;47353;51.614;5.530;2023-04-06T09:27:29;101486.25;;;8.98;55.27
59789;BME280;47353;51.614;5.530;2023-04-06T09:30:06;101486.84;;;9.00;55.65
59789;BME280;47353;51.614;5.530;2023-04-06T09:32:32;101495.38;;;9.15;57.20
59789;BME280;47353;51.614;5.530;2023-04-06T09:35:10;101482.47;;;9.21;56.04
59789;BME280;47353;51.614;5.530;2023-04-06T09:37:35;101478.22;;;9.30;57.58
59789;BME280;47353;51.614;5.530;2023-04-06T09:40:05;101488.81;;;9.38;57.45
59789;BME280;47353;51.614;5.530;2023-04-06T09:42:31;101490.09;;;9.47;58.08
59789;BME280;47353;51.614;5.530;2023-04-06T09:44:57;101484.19;;;9.60;56.91
59789;BME280;47353;51.614;5.530;2023-04-06T09:47:23;101487.38;;;9.52;58.43
59789;BME280;47353;51.614;5.530;2023-04-06T09:49:50;101491.25;;;9.51;58.77
59789;BME280;47353;51.614;5.530;2023-04-06T09:52:21;101488.22;;;9.52;59.16
59789;BME280;47353;51.614;5.530;2023-04-06T09:54:50;101495.16;;;9.55;59.05
59789;BME280;47353;51.614;5.530;2023-04-06T09:57:20;101492.22;;;9.61;60.46
59789;BME280;47353;51.614;5.530;2023-04-06T10:04:55;101495.44;;;9.75;61.25
59789;BME280;47353;51.614;5.530;2023-04-06T10:07:22;101482.81;;;9.62;62.87
59789;BME280;47353;51.614;5.530;2023-04-06T10:09:49;101498.78;;;9.55;63.71
59789;BME280;47353;51.614;5.530;2023-04-06T10:12:16;101493.09;;;9.45;64.08
59789;BME280;47353;51.614;5.530;2023-04-06T10:14:42;101498.69;;;9.50;64.20
59789;BME280;47353;51.614;5.530;2023-04-06T10:17:08;101502.59;;;9.33;65.15
59789;BME280;47353;51.614;5.530;2023-04-06T10:22:12;101504.78;;;9.14;67.81
59789;BME280;47353;51.614;5.530;2023-04-06T10:24:40;101495.22;;;9.05;66.62
59789;BME280;47353;51.614;5.530;2023-04-06T10:27:06;101505.44;;;9.05;68.09
59789;BME280;47353;51.614;5.530;2023-04-06T10:29:46;101496.47;;;8.98;70.52
59789;BME280;47353;51.614;5.530;2023-04-06T10:32:14;101504.00;;;8.86;70.55
59789;BME280;47353;51.614;5.530;2023-04-06T10:34:39;101500.97;;;8.87;70.51
59789;BME280;47353;51.614;5.530;2023-04-06T10:37:15;101501.16;;;8.97;72.84
59789;BME280;47353;51.614;5.530;2023-04-06T10:39:52;101506.34;;;9.10;72.25
59789;BME280;47353;51.614;5.530;2023-04-06T10:42:24;101507.34;;;9.21;72.94
59789;BME280;47353;51.614;5.530;2023-04-06T10:44:50;101505.84;;;8.97;73.88
59789;BME280;47353;51.614;5.530;2023-04-06T10:47:18;101505.00;;;8.96;73.69
59789;BME280;47353;51.614;5.530;2023-04-06T10:49:44;101501.31;;;8.91;73.97
59789;BME280;47353;51.614;5.530;2023-04-06T10:52:09;101497.22;;;8.93;74.02
59789;BME280;47353;51.614;5.530;2023-04-06T10:54:41;101500.81;;;8.94;75.36
59789;BME280;47353;51.614;5.530;2023-04-06T10:57:08;101502.41;;;8.90;74.06
59789;BME280;47353;51.614;5.530;2023-04-06T10:59:33;101491.41;;;8.62;77.55
59789;BME280;47353;51.614;5.530;2023-04-06T11:01:59;101492.31;;;8.51;80.19
59789;BME280;47353;51.614;5.530;2023-04-06T11:04:24;101491.16;;;8.47;77.67
59789;BME280;47353;51.614;5.530;2023-04-06T11:06:50;101490.31;;;8.46;77.13
59789;BME280;47353;51.614;5.530;2023-04-06T11:09:29;101493.81;;;8.41;77.93
59789;BME280;47353;51.614;5.530;2023-04-06T11:11:56;101486.66;;;8.29;78.54
59789;BME280;47353;51.614;5.530;2023-04-06T11:14:22;101477.59;;;8.05;79.97
59789;BME280;47353;51.614;5.530;2023-04-06T11:16:48;101477.16;;;7.97;80.98
59789;BME280;47353;51.614;5.530;2023-04-06T11:19:15;101484.16;;;7.76;82.42
59789;BME280;47353;51.614;5.530;2023-04-06T11:24:13;101468.72;;;7.64;85.00
59789;BME280;47353;51.614;5.530;2023-04-06T11:26:48;101471.47;;;7.64;85.79
59789;BME280;47353;51.614;5.530;2023-04-06T11:29:17;101470.13;;;7.78;87.06
59789;BME280;47353;51.614;5.530;2023-04-06T11:31:51;101463.06;;;7.82;86.49
59789;BME280;47353;51.614;5.530;2023-04-06T11:36:44;101458.25;;;7.89;86.99
59789;BME280;47353;51.614;5.530;2023-04-06T11:39:10;101455.22;;;8.02;85.21
59789;BME280;47353;51.614;5.530;2023-04-06T11:41:36;101464.84;;;7.88;86.29
59789;BME280;47353;51.614;5.530;2023-04-06T11:44:02;101462.97;;;7.77;85.37
59789;BME280;47353;51.614;5.530;2023-04-06T11:46:30;101461.56;;;7.51;88.26
59789;BME280;47353;51.614;5.530;2023-04-06T11:49:00;101458.56;;;7.53;89.19
59789;BME280;47353;51.614;5.530;2023-04-06T11:51:26;101436.19;;;7.38;91.12
59789;BME280;47353;51.614;5.530;2023-04-06T11:53:52;101437.13;;;7.55;89.61
59789;BME280;47353;51.614;5.530;2023-04-06T11:56:28;101442.03;;;7.53;91.05
59789;BME280;47353;51.614;5.530;2023-04-06T11:58:57;101435.09;;;7.62;89.46
59789;BME280;47353;51.614;5.530;2023-04-06T12:01:24;101432.72;;;7.54;92.41
59789;BME280;47353;51.614;5.530;2023-04-06T12:03:50;101428.75;;;7.50;93.69
59789;BME280;47353;51.614;5.530;2023-04-06T12:06:16;101439.38;;;7.69;93.79
59789;BME280;47353;51.614;5.530;2023-04-06T12:08:42;101428.53;;;7.91;92.16
59789;BME280;47353;51.614;5.530;2023-04-06T12:11:07;101433.00;;;8.08;90.80
59789;BME280;47353;51.614;5.530;2023-04-06T12:13:33;101422.97;;;8.30;89.66
59789;BME280;47353;51.614;5.530;2023-04-06T12:15:58;101425.91;;;8.40;88.27
59789;BME280;47353;51.614;5.530;2023-04-06T12:18:24;101426.84;;;8.46;89.24
59789;BME280;47353;51.614;5.530;2023-04-06T12:20:51;101425.69;;;8.59;88.52
59789;BME280;47353;51.614;5.530;2023-04-06T12:23:16;101425.19;;;8.78;87.78
59789;BME280;47353;51.614;5.530;2023-04-06T12:25:42;101421.84;;;8.76;87.88
59789;BME280;47353;51.614;5.530;2023-04-06T12:28:08;101422.53;;;8.67;86.34
59789;BME280;47353;51.614;5.530;2023-04-06T12:30:35;101438.66;;;8.75;86.16
59789;BME280;47353;51.614;5.530;2023-04-06T12:33:00;101421.59;;;8.61;87.87
59789;BME280;47353;51.614;5.530;2023-04-06T12:35:26;101415.97;;;8.39;89.82
59789;BME280;47353;51.614;5.530;2023-04-06T12:37:52;101437.44;;;8.09;90.69
59789;BME280;47353;51.614;5.530;2023-04-06T12:40:17;101421.94;;;7.92;93.95
59789;BME280;47353;51.614;5.530;2023-04-06T12:42:43;101416.63;;;7.62;95.85
59789;BME280;47353;51.614;5.530;2023-04-06T12:45:09;101413.06;;;7.62;96.03
59789;BME280;47353;51.614;5.530;2023-04-06T12:47:34;101410.72;;;7.31;100.00
59789;BME280;47353;51.614;5.530;2023-04-06T12:50:02;101416.31;;;7.36;100.00
59789;BME280;47353;51.614;5.530;2023-04-06T12:52:27;101411.03;;;7.34;100.00
59789;BME280;47353;51.614;5.530;2023-04-06T12:54:55;101406.72;;;7.50;100.00
59789;BME280;47353;51.614;5.530;2023-04-06T12:57:21;101402.97;;;7.56;100.00
59789;BME280;47353;51.614;5.530;2023-04-06T12:59:47;101400.47;;;7.54;100.00
59789;BME280;47353;51.614;5.530;2023-04-06T13:02:12;101386.78;;;7.71;100.00
59789;BME280;47353;51.614;5.530;2023-04-06T13:04:41;101391.00;;;7.90;100.00
59789;BME280;47353;51.614;5.530;2023-04-06T13:07:07;101386.09;;;7.92;100.00